createdAt,value
2024-01-30T00:00:23.285Z,8.00
2024-01-30T00:03:11.329Z,7.30
2024-01-30T00:05:39.680Z,8.00
2024-01-30T00:08:08.026Z,8.50
2024-01-30T00:10:36.302Z,9.00
2024-01-30T00:13:04.992Z,8.10
2024-01-30T00:15:33.933Z,9.10
2024-01-30T00:18:02.528Z,9.40
2024-01-30T00:20:33.780Z,10.10
2024-01-30T00:23:17.406Z,8.50
2024-01-30T00:25:45.987Z,8.80
2024-01-30T00:28:14.241Z,10.00
2024-01-30T00:30:42.325Z,9.60
2024-01-30T00:33:11.155Z,8.60
2024-01-30T00:35:39.392Z,8.60
2024-01-30T00:38:09.315Z,7.90
2024-01-30T00:40:37.403Z,8.20
2024-01-30T00:43:05.685Z,7.90
2024-01-30T00:45:34.151Z,7.90
2024-01-30T00:48:02.615Z,6.70
2024-01-30T00:50:31.151Z,8.70
2024-01-30T00:52:59.479Z,6.60
2024-01-30T00:55:27.748Z,7.90
2024-01-30T00:57:55.976Z,8.30
2024-01-30T01:00:30.316Z,8.10
2024-01-30T01:02:59.208Z,5.60
2024-01-30T01:05:28.247Z,5.70
2024-01-30T01:07:56.358Z,5.20
2024-01-30T01:10:24.901Z,5.60
2024-01-30T01:12:53.185Z,6.10
2024-01-30T01:15:21.237Z,6.30
2024-01-30T01:17:50.247Z,6.90
2024-01-30T01:20:18.316Z,5.30
2024-01-30T01:22:46.679Z,6.90
2024-01-30T01:25:15.116Z,6.50
2024-01-30T01:27:44.583Z,6.20
2024-01-30T01:30:15.866Z,5.90
2024-01-30T01:32:50.464Z,5.80
2024-01-30T01:35:18.933Z,5.60
2024-01-30T01:37:46.997Z,7.40
2024-01-30T01:40:15.230Z,6.70
2024-01-30T01:42:43.544Z,6.70
2024-01-30T01:45:11.711Z,6.90
2024-01-30T01:47:40.120Z,7.30
2024-01-30T01:50:09.305Z,7.50
2024-01-30T01:52:38.602Z,7.10
2024-01-30T01:55:07.595Z,6.90
2024-01-30T01:57:36.180Z,6.90
2024-01-30T02:00:05.699Z,7.00
2024-01-30T02:02:37.135Z,6.60
2024-01-30T02:05:05.985Z,7.00
2024-01-30T02:07:34.220Z,6.30
2024-01-30T02:10:02.534Z,6.00
2024-01-30T02:12:31.127Z,7.60
2024-01-30T02:14:59.345Z,6.60
2024-01-30T02:17:27.692Z,5.60
2024-01-30T02:19:55.932Z,7.80
2024-01-30T02:22:25.308Z,7.50
2024-01-30T02:24:53.449Z,7.10
2024-01-30T02:27:22.136Z,6.00
2024-01-30T02:29:50.224Z,7.20
2024-01-30T02:32:18.323Z,6.60
2024-01-30T02:34:46.595Z,5.20
2024-01-30T02:37:14.602Z,3.60
2024-01-30T02:39:42.865Z,4.00
2024-01-30T02:42:11.031Z,4.30
2024-01-30T02:44:39.260Z,4.60
2024-01-30T02:47:07.895Z,4.20
2024-01-30T02:49:36.162Z,4.90
2024-01-30T02:52:04.912Z,4.10
2024-01-30T02:54:33.064Z,4.40
2024-01-30T02:57:01.228Z,4.80
2024-01-30T02:59:29.611Z,5.40
2024-01-30T03:01:57.775Z,5.40
2024-01-30T03:04:26.155Z,4.20
2024-01-30T03:06:54.586Z,5.80
2024-01-30T03:09:22.923Z,4.60
2024-01-30T03:11:51.088Z,5.10
2024-01-30T03:14:19.171Z,5.20
2024-01-30T03:16:47.345Z,7.00
2024-01-30T03:19:15.723Z,5.40
2024-01-30T03:21:44.162Z,6.00
2024-01-30T03:24:12.243Z,6.50
2024-01-30T03:26:40.346Z,5.20
2024-01-30T03:29:08.845Z,5.40
2024-01-30T03:31:37.301Z,5.20
2024-01-30T03:34:05.359Z,5.10
2024-01-30T03:36:36.615Z,5.00
2024-01-30T03:39:04.681Z,6.10
2024-01-30T03:41:33.107Z,5.90
2024-01-30T03:44:01.388Z,4.80
2024-01-30T03:46:29.563Z,5.90
2024-01-30T03:48:57.772Z,6.20
2024-01-30T03:51:26.084Z,6.10
2024-01-30T03:53:54.139Z,6.00
2024-01-30T03:56:22.264Z,6.00
2024-01-30T03:58:50.258Z,3.60
2024-01-30T04:01:18.586Z,3.60
2024-01-30T04:03:47.060Z,4.30
2024-01-30T04:06:15.623Z,4.30
2024-01-30T04:08:43.830Z,4.00
2024-01-30T04:11:11.917Z,4.50
2024-01-30T04:13:39.874Z,5.20
2024-01-30T04:16:08.117Z,4.20
2024-01-30T04:18:36.328Z,4.30
2024-01-30T04:21:04.565Z,5.60
2024-01-30T04:23:32.952Z,4.70
2024-01-30T04:26:01.211Z,4.80
2024-01-30T04:28:30.090Z,4.40
2024-01-30T04:30:58.186Z,4.10
2024-01-30T04:33:26.601Z,4.40
2024-01-30T04:35:54.659Z,5.40
2024-01-30T04:38:22.809Z,4.60
2024-01-30T04:40:50.779Z,4.70
2024-01-30T04:43:20.428Z,5.90
2024-01-30T04:45:49.119Z,5.20
2024-01-30T04:48:17.211Z,5.60
2024-01-30T04:50:45.516Z,5.40
2024-01-30T04:53:13.689Z,5.50
2024-01-30T04:55:42.001Z,5.40
2024-01-30T04:58:10.303Z,5.90
2024-01-30T05:00:38.655Z,5.80
2024-01-30T05:03:06.720Z,4.80
2024-01-30T05:05:35.419Z,5.30
2024-01-30T05:08:03.810Z,6.00
2024-01-30T05:10:32.096Z,5.60
2024-01-30T05:13:00.352Z,3.80
2024-01-30T05:15:28.463Z,4.20
2024-01-30T05:17:56.565Z,4.60
2024-01-30T05:20:24.829Z,4.10
2024-01-30T05:22:53.688Z,5.30
2024-01-30T05:25:21.927Z,4.20
2024-01-30T05:27:50.997Z,4.50
2024-01-30T05:30:19.296Z,3.70
2024-01-30T05:32:47.585Z,4.60
2024-01-30T05:35:15.833Z,3.90
2024-01-30T05:37:43.987Z,4.50
2024-01-30T05:40:12.769Z,5.00
2024-01-30T05:42:41.177Z,4.80
2024-01-30T05:45:09.883Z,4.80
2024-01-30T05:47:38.053Z,4.50
2024-01-30T05:50:07.629Z,4.40
2024-01-30T05:52:35.987Z,4.80
2024-01-30T05:55:04.734Z,4.90
2024-01-30T05:57:33.297Z,4.80
2024-01-30T06:00:01.350Z,5.20
2024-01-30T06:02:29.480Z,6.90
2024-01-30T06:04:57.808Z,7.80
2024-01-30T06:07:26.203Z,8.00
2024-01-30T06:09:54.811Z,6.70
2024-01-30T06:12:23.142Z,8.30
2024-01-30T06:14:51.234Z,6.60
2024-01-30T06:17:19.481Z,5.80
2024-01-30T06:19:47.629Z,7.50
2024-01-30T06:22:17.131Z,5.80
2024-01-30T06:24:46.487Z,5.80
2024-01-30T06:27:15.091Z,7.20
2024-01-30T06:29:44.747Z,6.90
2024-01-30T06:32:12.950Z,7.10
2024-01-30T06:34:42.730Z,7.80
2024-01-30T06:37:11.106Z,6.20
2024-01-30T06:39:39.188Z,7.10
2024-01-30T06:42:07.578Z,5.60
2024-01-30T06:44:36.178Z,5.90
2024-01-30T06:47:04.809Z,6.80
2024-01-30T06:49:32.928Z,5.80
2024-01-30T06:52:01.147Z,5.70
2024-01-30T06:54:29.571Z,5.80
2024-01-30T06:56:58.040Z,7.00
2024-01-30T06:59:26.523Z,5.70
2024-01-30T07:01:54.962Z,6.80
2024-01-30T07:04:23.420Z,5.80
2024-01-30T07:06:51.702Z,5.40
2024-01-30T07:09:20.131Z,6.10
2024-01-30T07:11:48.219Z,5.60
2024-01-30T07:14:16.382Z,6.40
2024-01-30T07:16:45.168Z,8.10
2024-01-30T07:19:13.466Z,7.00
2024-01-30T07:21:42.059Z,6.70
2024-01-30T07:24:10.396Z,7.50
2024-01-30T07:26:38.672Z,8.60
2024-01-30T07:29:06.859Z,7.80
2024-01-30T07:31:35.039Z,8.90
2024-01-30T07:34:03.871Z,8.80
2024-01-30T07:36:32.290Z,9.10
2024-01-30T07:39:00.617Z,8.80
2024-01-30T07:41:28.868Z,7.70
2024-01-30T07:43:57.216Z,7.50
2024-01-30T07:46:25.567Z,7.90
2024-01-30T07:48:55.419Z,8.90
2024-01-30T07:51:23.988Z,8.50
2024-01-30T07:53:52.188Z,8.20
2024-01-30T07:56:20.545Z,7.30
2024-01-30T07:58:48.739Z,6.30
2024-01-30T08:01:17.439Z,4.50
2024-01-30T08:03:45.926Z,4.50
2024-01-30T08:06:14.242Z,4.90
2024-01-30T08:08:42.446Z,4.30
2024-01-30T08:11:10.808Z,5.50
2024-01-30T08:13:38.799Z,6.60
2024-01-30T08:16:07.433Z,8.20
2024-01-30T08:18:35.678Z,14.10
2024-01-30T08:21:04.273Z,18.30
2024-01-30T08:23:32.299Z,12.70
2024-01-30T08:26:00.586Z,18.70
2024-01-30T08:28:29.874Z,21.80
2024-01-30T08:30:58.539Z,24.70
2024-01-30T08:33:27.167Z,16.30
2024-01-30T08:35:55.542Z,21.60
2024-01-30T08:38:23.804Z,16.70
2024-01-30T08:40:52.223Z,12.50
2024-01-30T08:43:20.547Z,12.30
2024-01-30T08:45:48.947Z,11.20
2024-01-30T08:48:17.226Z,12.20
2024-01-30T08:50:45.934Z,7.80
2024-01-30T08:53:14.181Z,10.80
2024-01-30T08:55:42.662Z,7.70
2024-01-30T08:58:11.088Z,6.40
2024-01-30T09:00:39.250Z,8.30
2024-01-30T09:03:07.932Z,10.00
2024-01-30T09:05:36.277Z,9.30
2024-01-30T09:08:05.139Z,9.10
2024-01-30T09:10:33.272Z,10.90
2024-01-30T09:13:01.751Z,9.90
2024-01-30T09:15:29.933Z,11.00
2024-01-30T09:17:58.082Z,13.00
2024-01-30T09:20:26.089Z,12.90
2024-01-30T09:22:54.232Z,10.90
2024-01-30T09:25:22.565Z,13.10
2024-01-30T09:27:51.080Z,12.70
2024-01-30T09:30:19.364Z,11.30
2024-01-30T09:32:47.660Z,13.20
2024-01-30T09:35:16.180Z,11.80
2024-01-30T09:37:44.808Z,10.00
2024-01-30T09:40:13.435Z,7.50
2024-01-30T09:42:44.047Z,11.10
2024-01-30T09:45:14.981Z,7.30
2024-01-30T09:47:44.918Z,9.90
2024-01-30T09:50:17.238Z,9.30
2024-01-30T09:52:46.106Z,11.80
2024-01-30T09:55:14.712Z,6.50
2024-01-30T09:57:45.067Z,8.60
2024-01-30T10:02:42.404Z,9.20
2024-01-30T10:05:11.034Z,6.50
2024-01-30T10:07:39.538Z,7.80
2024-01-30T10:10:08.459Z,9.10
2024-01-30T10:12:36.744Z,8.40
2024-01-30T10:15:09.528Z,7.70
2024-01-30T10:17:39.585Z,6.60
2024-01-30T10:20:09.190Z,5.50
2024-01-30T10:22:37.627Z,5.20
2024-01-30T10:25:07.023Z,5.70
2024-01-30T10:27:35.377Z,4.80
2024-01-30T10:30:05.417Z,5.30
2024-01-30T10:32:33.735Z,3.90
2024-01-30T10:35:02.265Z,3.80
2024-01-30T10:37:33.409Z,3.90
2024-01-30T10:40:07.829Z,3.80
2024-01-30T10:42:38.519Z,4.60
2024-01-30T10:45:14.027Z,5.00
2024-01-30T10:47:50.069Z,4.50
2024-01-30T10:50:18.609Z,3.90
2024-01-30T10:52:47.965Z,3.60
2024-01-30T10:55:17.311Z,3.70
2024-01-30T10:57:45.529Z,4.10
2024-01-30T11:00:18.910Z,3.50
2024-01-30T11:02:48.850Z,3.30
2024-01-30T11:05:30.470Z,3.90
2024-01-30T11:08:12.442Z,3.80
2024-01-30T11:10:49.986Z,4.20
2024-01-30T11:13:20.676Z,4.10
2024-01-30T11:15:49.841Z,4.70
2024-01-30T11:18:31.008Z,4.80
2024-01-30T11:21:03.435Z,4.50
2024-01-30T11:23:32.379Z,4.90
2024-01-30T11:26:01.689Z,4.90
2024-01-30T11:28:38.773Z,5.00
2024-01-30T11:31:13.020Z,4.70
2024-01-30T11:33:41.269Z,5.70
2024-01-30T11:36:10.254Z,5.60
2024-01-30T11:41:07.441Z,6.80
2024-01-30T11:43:36.612Z,6.10
2024-01-30T11:46:08.698Z,6.90
2024-01-30T11:48:37.369Z,7.70
2024-01-30T11:53:34.016Z,7.20
2024-01-30T11:56:04.982Z,8.40
2024-01-30T11:58:33.231Z,8.40
2024-01-30T12:01:02.086Z,8.30
2024-01-30T12:03:30.297Z,9.30
2024-01-30T12:06:00.153Z,8.10
2024-01-30T12:08:29.364Z,8.80
2024-01-30T12:11:00.138Z,9.30
2024-01-30T12:13:33.129Z,9.20
2024-01-30T12:16:03.229Z,9.10
2024-01-30T12:18:32.150Z,10.10
2024-01-30T12:21:01.798Z,10.30
2024-01-30T12:23:30.821Z,11.10
2024-01-30T12:25:59.218Z,10.40
2024-01-30T12:28:28.256Z,10.40
2024-01-30T12:31:04.492Z,11.60
2024-01-30T12:33:33.528Z,12.30
2024-01-30T12:36:06.241Z,13.80
2024-01-30T12:38:34.607Z,13.50
2024-01-30T12:41:03.132Z,14.50
2024-01-30T12:43:37.792Z,12.10
2024-01-30T12:46:08.826Z,12.40
2024-01-30T12:48:37.363Z,12.30
2024-01-30T12:51:06.227Z,13.90
2024-01-30T12:53:34.673Z,13.30
2024-01-30T12:56:02.908Z,13.70
2024-01-30T12:58:31.297Z,13.40
2024-01-30T13:00:59.977Z,14.00
2024-01-30T13:03:28.532Z,13.40
2024-01-30T13:05:57.058Z,12.80
2024-01-30T13:08:25.587Z,12.60
2024-01-30T13:10:54.144Z,12.60
2024-01-30T13:13:22.523Z,12.80
2024-01-30T13:15:50.627Z,13.10
2024-01-30T13:18:19.076Z,13.10
2024-01-30T13:20:47.633Z,12.50
2024-01-30T13:23:15.995Z,12.00
2024-01-30T13:28:12.160Z,10.60
2024-01-30T13:30:40.442Z,12.20
2024-01-30T13:33:08.730Z,11.70
2024-01-30T13:35:36.961Z,14.50
2024-01-30T13:38:05.337Z,11.70
2024-01-30T13:43:02.413Z,10.50
2024-01-30T13:45:30.942Z,11.20
2024-01-30T13:48:00.419Z,11.90
2024-01-30T13:50:29.597Z,10.70
2024-01-30T13:52:57.960Z,10.50
2024-01-30T13:55:27.285Z,11.30
2024-01-30T13:57:57.260Z,11.80
2024-01-30T14:00:27.000Z,11.30
2024-01-30T14:02:56.279Z,10.50
2024-01-30T14:05:25.215Z,9.90
2024-01-30T14:07:53.970Z,9.80
2024-01-30T14:10:22.714Z,9.60
2024-01-30T14:15:27.578Z,9.10
2024-01-30T14:17:57.961Z,10.10
2024-01-30T14:20:27.888Z,10.80
2024-01-30T14:25:26.180Z,9.10
2024-01-30T14:27:54.887Z,9.90
2024-01-30T14:30:24.017Z,10.10
2024-01-30T14:32:52.377Z,8.90
2024-01-30T14:35:21.786Z,8.20
2024-01-30T14:37:51.463Z,8.30
2024-01-30T14:40:21.116Z,8.30
2024-01-30T14:42:49.739Z,8.70
2024-01-30T14:45:18.111Z,7.90
2024-01-30T14:47:47.184Z,8.40
2024-01-30T14:50:18.069Z,8.30
2024-01-30T14:52:47.006Z,8.70
2024-01-30T14:55:15.674Z,8.80
2024-01-30T14:57:46.360Z,9.30
2024-01-30T15:00:17.044Z,8.60
2024-01-30T15:02:48.179Z,7.30
2024-01-30T15:05:16.683Z,7.00
2024-01-30T15:07:45.728Z,7.70
2024-01-30T15:10:14.465Z,8.70
2024-01-30T15:12:42.758Z,10.50
2024-01-30T15:15:11.793Z,12.20
2024-01-30T15:17:40.810Z,12.00
2024-01-30T15:20:10.232Z,9.80
2024-01-30T15:22:39.125Z,9.10
2024-01-30T15:25:07.968Z,9.10
2024-01-30T15:27:36.127Z,11.10
2024-01-30T15:30:05.688Z,11.80
2024-01-30T15:35:05.880Z,11.60
2024-01-30T15:37:34.760Z,10.60
2024-01-30T15:40:03.946Z,9.00
2024-01-30T15:42:32.272Z,9.30
2024-01-30T15:45:00.446Z,7.80
2024-01-30T15:47:28.849Z,7.20
2024-01-30T15:49:57.142Z,7.50
2024-01-30T15:52:25.568Z,7.30
2024-01-30T15:54:53.840Z,7.00
2024-01-30T15:57:22.166Z,7.00
2024-01-30T15:59:50.339Z,5.90
2024-01-30T16:02:19.718Z,6.30
2024-01-30T16:04:48.599Z,5.70
2024-01-30T16:07:19.759Z,6.40
2024-01-30T16:09:48.110Z,6.30
2024-01-30T16:12:16.412Z,6.40
2024-01-30T16:14:44.794Z,5.70
2024-01-30T16:17:13.821Z,5.40
2024-01-30T16:19:42.357Z,4.90
2024-01-30T16:22:10.644Z,4.80
2024-01-30T16:24:38.830Z,5.50
2024-01-30T16:27:07.314Z,5.60
2024-01-30T16:29:37.010Z,6.10
2024-01-30T16:32:05.682Z,6.10
2024-01-30T16:34:33.801Z,5.70
2024-01-30T16:37:02.372Z,5.60
2024-01-30T16:39:31.430Z,6.60
2024-01-30T16:41:59.942Z,7.90
2024-01-30T16:44:28.312Z,9.20
2024-01-30T16:46:56.590Z,10.50
2024-01-30T16:49:25.163Z,7.90
2024-01-30T16:51:53.367Z,7.10
2024-01-30T16:54:21.616Z,6.60
2024-01-30T16:56:49.898Z,6.80
2024-01-30T16:59:20.045Z,6.20
2024-01-30T17:01:51.183Z,7.60
2024-01-30T17:04:22.695Z,6.20
2024-01-30T17:06:51.888Z,6.80
2024-01-30T17:09:20.026Z,9.30
2024-01-30T17:11:48.249Z,8.10
2024-01-30T17:14:18.124Z,9.40
2024-01-30T17:16:50.237Z,8.80
2024-01-30T17:19:23.082Z,8.20
2024-01-30T17:21:51.839Z,9.10
2024-01-30T17:24:21.868Z,7.30
2024-01-30T17:26:53.970Z,8.60
2024-01-30T17:29:22.574Z,7.50
2024-01-30T17:31:51.491Z,8.80
2024-01-30T17:34:19.927Z,7.90
2024-01-30T17:36:48.119Z,7.10
2024-01-30T17:39:16.384Z,7.50
2024-01-30T17:41:44.971Z,7.80
2024-01-30T17:44:14.796Z,7.60
2024-01-30T17:46:43.504Z,7.20
2024-01-30T17:49:12.042Z,8.10
2024-01-30T17:51:41.863Z,8.30
2024-01-30T17:54:10.050Z,8.30
2024-01-30T17:56:38.194Z,9.90
2024-01-30T17:59:06.448Z,8.20
2024-01-30T18:01:35.066Z,8.90
2024-01-30T18:04:03.431Z,9.50
2024-01-30T18:06:32.053Z,9.00
2024-01-30T18:09:00.231Z,9.20
2024-01-30T18:11:28.597Z,9.30
2024-01-30T18:13:57.380Z,10.80
2024-01-30T18:16:25.997Z,9.20
2024-01-30T18:18:54.337Z,8.40
2024-01-30T18:21:22.874Z,8.00
2024-01-30T18:23:50.976Z,9.50
2024-01-30T18:26:19.049Z,9.70
2024-01-30T18:28:47.093Z,8.50
2024-01-30T18:31:16.509Z,9.00
2024-01-30T18:33:46.937Z,9.70
2024-01-30T18:36:15.441Z,10.40
2024-01-30T18:38:43.556Z,9.10
2024-01-30T18:41:11.894Z,9.30
2024-01-30T18:43:40.102Z,9.70
2024-01-30T18:46:10.019Z,9.20
2024-01-30T18:48:39.015Z,9.70
2024-01-30T18:51:07.794Z,9.30
2024-01-30T18:53:35.963Z,12.70
2024-01-30T18:56:06.743Z,12.10
2024-01-30T19:01:03.970Z,10.70
2024-01-30T19:03:32.990Z,11.40
2024-01-30T19:06:01.686Z,9.50
2024-01-30T19:08:30.330Z,12.40
2024-01-30T19:10:58.626Z,12.90
2024-01-30T19:13:26.914Z,12.30
2024-01-30T19:15:56.221Z,11.40
2024-01-30T19:18:24.780Z,10.50
2024-01-30T19:20:53.317Z,10.10
2024-01-30T19:23:21.688Z,9.80
2024-01-30T19:25:50.139Z,10.30
2024-01-30T19:28:18.421Z,9.10
2024-01-30T19:30:46.752Z,9.40
2024-01-30T19:33:14.927Z,9.20
2024-01-30T19:35:43.247Z,8.70
2024-01-30T19:38:14.524Z,8.60
2024-01-30T19:40:43.629Z,7.60
2024-01-30T19:43:11.946Z,11.30
2024-01-30T19:45:40.187Z,10.10
2024-01-30T19:48:08.997Z,9.10
2024-01-30T19:50:37.374Z,9.10
2024-01-30T19:53:05.649Z,9.10
2024-01-30T19:55:33.938Z,8.70
2024-01-30T19:58:06.130Z,8.30
2024-01-30T20:00:34.254Z,8.60
2024-01-30T20:03:02.424Z,9.20
2024-01-30T20:05:31.073Z,9.60
2024-01-30T20:07:59.201Z,9.10
2024-01-30T20:10:27.622Z,8.90
2024-01-30T20:12:55.954Z,7.90
2024-01-30T20:15:24.292Z,8.70
2024-01-30T20:17:52.741Z,8.50
2024-01-30T20:20:21.910Z,8.50
2024-01-30T20:22:50.769Z,7.20
2024-01-30T20:25:20.347Z,8.40
2024-01-30T20:27:49.464Z,8.50
2024-01-30T20:30:19.070Z,8.00
2024-01-30T20:32:48.323Z,8.20
2024-01-30T20:35:19.965Z,7.80
2024-01-30T20:37:50.526Z,8.50
2024-01-30T20:40:18.885Z,8.50
2024-01-30T20:42:48.852Z,9.10
2024-01-30T20:45:21.740Z,10.10
2024-01-30T20:47:50.720Z,9.40
2024-01-30T20:50:20.865Z,9.80
2024-01-30T20:52:49.946Z,10.70
2024-01-30T20:55:18.449Z,11.60
2024-01-30T20:57:50.003Z,9.80
2024-01-30T21:00:19.030Z,9.70
2024-01-30T21:02:48.915Z,9.60
2024-01-30T21:05:23.893Z,10.50
2024-01-30T21:07:54.679Z,10.60
2024-01-30T21:10:23.376Z,10.70
2024-01-30T21:12:52.537Z,10.50
2024-01-30T21:15:20.971Z,11.60
2024-01-30T21:17:53.882Z,9.50
2024-01-30T21:20:24.508Z,9.70
2024-01-30T21:22:55.496Z,8.60
2024-01-30T21:25:23.875Z,7.90
2024-01-30T21:27:52.863Z,7.40
2024-01-30T21:30:22.356Z,8.70
2024-01-30T21:32:53.861Z,9.10
2024-01-30T21:35:25.585Z,8.60
2024-01-30T21:37:59.306Z,8.30
2024-01-30T21:40:30.116Z,8.20
2024-01-30T21:42:59.212Z,8.00
2024-01-30T21:45:27.569Z,13.90
2024-01-30T21:47:55.824Z,12.70
2024-01-30T21:50:24.451Z,12.50
2024-01-30T21:52:53.418Z,11.20
2024-01-30T21:55:22.144Z,10.10
2024-01-30T21:57:50.386Z,9.60
2024-01-30T22:00:19.232Z,9.50
2024-01-30T22:02:47.808Z,9.20
2024-01-30T22:05:16.463Z,8.60
2024-01-30T22:07:44.863Z,7.40
2024-01-30T22:10:13.746Z,9.90
2024-01-30T22:12:42.086Z,11.00
2024-01-30T22:15:14.195Z,13.70
2024-01-30T22:17:44.819Z,14.90
2024-01-30T22:20:12.965Z,12.50
2024-01-30T22:22:41.514Z,12.70
2024-01-30T22:25:10.075Z,9.30
2024-01-30T22:27:39.848Z,9.40
2024-01-30T22:30:08.741Z,9.40
2024-01-30T22:32:37.937Z,8.60
2024-01-30T22:35:11.757Z,9.20
2024-01-30T22:37:41.171Z,7.90
2024-01-30T22:40:10.166Z,8.10
2024-01-30T22:42:38.334Z,7.80
2024-01-30T22:45:07.345Z,10.60
2024-01-30T22:47:35.429Z,9.70
2024-01-30T22:50:05.456Z,11.30
2024-01-30T22:52:33.704Z,13.50
2024-01-30T22:55:03.171Z,10.90
2024-01-30T22:57:33.284Z,9.60
2024-01-30T23:00:02.554Z,9.30
2024-01-30T23:02:30.795Z,10.50
2024-01-30T23:04:59.143Z,9.20
2024-01-30T23:07:28.654Z,10.00
2024-01-30T23:09:57.251Z,9.00
2024-01-30T23:12:25.706Z,9.70
2024-01-30T23:14:53.974Z,9.10
2024-01-30T23:17:22.632Z,8.20
2024-01-30T23:19:51.010Z,9.20
2024-01-30T23:22:19.347Z,10.10
2024-01-30T23:24:47.422Z,7.70
2024-01-30T23:27:16.377Z,9.20
2024-01-30T23:29:44.504Z,9.90
2024-01-30T23:32:17.153Z,9.10
2024-01-30T23:34:50.372Z,9.50
2024-01-30T23:37:20.415Z,10.30
2024-01-30T23:39:50.982Z,8.50
2024-01-30T23:42:19.564Z,9.00
2024-01-30T23:44:47.769Z,8.20
2024-01-30T23:47:16.060Z,8.40
2024-01-30T23:49:44.392Z,7.30
2024-01-30T23:52:12.605Z,8.40
2024-01-30T23:54:40.840Z,8.40
2024-01-30T23:57:09.212Z,10.20
2024-01-30T23:59:38.010Z,10.20
